sensor_id;sensor_type;location;lat;lon;timestamp;P1;durP1;ratioP1;P2;durP2;ratioP2
59263;SDS011;45030;42.720;23.344;2023-06-19T00:01:39;6.97;;;4.32;;
59263;SDS011;45030;42.720;23.344;2023-06-19T00:04:04;7.22;;;4.25;;
59263;SDS011;45030;42.720;23.344;2023-06-19T00:06:29;7.47;;;3.97;;
59263;SDS011;45030;42.720;23.344;2023-06-19T00:08:55;8.60;;;4.85;;
59263;SDS011;45030;42.720;23.344;2023-06-19T00:11:20;6.00;;;4.50;;
59263;SDS011;45030;42.720;23.344;2023-06-19T00:13:45;7.80;;;5.10;;
59263;SDS011;45030;42.720;23.344;2023-06-19T00:16:10;8.82;;;4.53;;
59263;SDS011;45030;42.720;23.344;2023-06-19T00:18:36;7.53;;;5.05;;
59263;SDS011;45030;42.720;23.344;2023-06-19T00:21:05;7.00;;;4.47;;
59263;SDS011;45030;42.720;23.344;2023-06-19T00:23:30;7.30;;;4.47;;
59263;SDS011;45030;42.720;23.344;2023-06-19T00:25:56;6.38;;;4.35;;
59263;SDS011;45030;42.720;23.344;2023-06-19T00:28:21;8.15;;;4.22;;
59263;SDS011;45030;42.720;23.344;2023-06-19T00:30:46;8.77;;;4.88;;
59263;SDS011;45030;42.720;23.344;2023-06-19T00:33:11;12.90;;;4.80;;
59263;SDS011;45030;42.720;23.344;2023-06-19T00:35:37;5.68;;;4.20;;
59263;SDS011;45030;42.720;23.344;2023-06-19T00:38:02;4.95;;;3.78;;
59263;SDS011;45030;42.720;23.344;2023-06-19T00:40:28;7.32;;;4.22;;
59263;SDS011;45030;42.720;23.344;2023-06-19T00:42:53;8.38;;;5.28;;
59263;SDS011;45030;42.720;23.344;2023-06-19T00:45:19;7.72;;;5.05;;
59263;SDS011;45030;42.720;23.344;2023-06-19T00:47:44;7.22;;;3.47;;
59263;SDS011;45030;42.720;23.344;2023-06-19T00:50:09;8.70;;;3.80;;
59263;SDS011;45030;42.720;23.344;2023-06-19T00:52:35;6.13;;;3.83;;
59263;SDS011;45030;42.720;23.344;2023-06-19T00:55:00;6.60;;;3.60;;
59263;SDS011;45030;42.720;23.344;2023-06-19T00:57:26;8.05;;;3.80;;
59263;SDS011;45030;42.720;23.344;2023-06-19T00:59:51;5.75;;;3.90;;
59263;SDS011;45030;42.720;23.344;2023-06-19T01:02:18;5.68;;;3.47;;
59263;SDS011;45030;42.720;23.344;2023-06-19T01:04:43;7.55;;;3.85;;
59263;SDS011;45030;42.720;23.344;2023-06-19T01:07:09;4.13;;;2.90;;
59263;SDS011;45030;42.720;23.344;2023-06-19T01:09:45;9.15;;;4.10;;
59263;SDS011;45030;42.720;23.344;2023-06-19T01:12:18;4.85;;;3.45;;
59263;SDS011;45030;42.720;23.344;2023-06-19T01:14:54;7.50;;;3.60;;
59263;SDS011;45030;42.720;23.344;2023-06-19T01:17:22;5.32;;;3.75;;
59263;SDS011;45030;42.720;23.344;2023-06-19T01:19:47;6.25;;;3.50;;
59263;SDS011;45030;42.720;23.344;2023-06-19T01:22:22;7.10;;;4.03;;
59263;SDS011;45030;42.720;23.344;2023-06-19T01:24:47;5.85;;;3.67;;
59263;SDS011;45030;42.720;23.344;2023-06-19T01:27:12;7.50;;;3.72;;
59263;SDS011;45030;42.720;23.344;2023-06-19T01:29:38;5.93;;;3.72;;
59263;SDS011;45030;42.720;23.344;2023-06-19T01:32:04;5.55;;;3.63;;
59263;SDS011;45030;42.720;23.344;2023-06-19T01:34:32;5.15;;;3.35;;
59263;SDS011;45030;42.720;23.344;2023-06-19T01:36:58;6.75;;;3.50;;
59263;SDS011;45030;42.720;23.344;2023-06-19T01:39:23;5.22;;;3.97;;
59263;SDS011;45030;42.720;23.344;2023-06-19T01:41:49;5.78;;;3.45;;
59263;SDS011;45030;42.720;23.344;2023-06-19T01:44:15;7.72;;;4.30;;
59263;SDS011;45030;42.720;23.344;2023-06-19T01:46:40;6.70;;;3.60;;
59263;SDS011;45030;42.720;23.344;2023-06-19T01:49:06;4.75;;;2.97;;
59263;SDS011;45030;42.720;23.344;2023-06-19T01:51:32;4.32;;;3.13;;
59263;SDS011;45030;42.720;23.344;2023-06-19T01:53:57;5.20;;;3.72;;
59263;SDS011;45030;42.720;23.344;2023-06-19T01:56:22;5.55;;;3.50;;
59263;SDS011;45030;42.720;23.344;2023-06-19T01:58:49;7.32;;;3.30;;
59263;SDS011;45030;42.720;23.344;2023-06-19T02:01:14;10.35;;;3.90;;
59263;SDS011;45030;42.720;23.344;2023-06-19T02:03:39;6.38;;;3.33;;
59263;SDS011;45030;42.720;23.344;2023-06-19T02:06:05;6.22;;;4.13;;
59263;SDS011;45030;42.720;23.344;2023-06-19T02:08:30;6.07;;;3.63;;
59263;SDS011;45030;42.720;23.344;2023-06-19T02:10:55;5.75;;;3.40;;
59263;SDS011;45030;42.720;23.344;2023-06-19T02:13:20;5.88;;;3.70;;
59263;SDS011;45030;42.720;23.344;2023-06-19T02:15:46;5.90;;;3.38;;
59263;SDS011;45030;42.720;23.344;2023-06-19T02:18:11;5.78;;;3.70;;
59263;SDS011;45030;42.720;23.344;2023-06-19T02:20:36;7.00;;;3.63;;
59263;SDS011;45030;42.720;23.344;2023-06-19T02:23:01;5.53;;;3.67;;
59263;SDS011;45030;42.720;23.344;2023-06-19T02:25:27;5.38;;;3.60;;
59263;SDS011;45030;42.720;23.344;2023-06-19T02:27:52;6.32;;;3.28;;
59263;SDS011;45030;42.720;23.344;2023-06-19T02:30:17;7.95;;;4.00;;
59263;SDS011;45030;42.720;23.344;2023-06-19T02:32:42;5.05;;;3.33;;
59263;SDS011;45030;42.720;23.344;2023-06-19T02:35:09;5.05;;;3.47;;
59263;SDS011;45030;42.720;23.344;2023-06-19T02:37:34;6.00;;;3.75;;
59263;SDS011;45030;42.720;23.344;2023-06-19T02:40:01;6.10;;;3.17;;
59263;SDS011;45030;42.720;23.344;2023-06-19T02:42:28;6.00;;;3.22;;
59263;SDS011;45030;42.720;23.344;2023-06-19T02:44:53;6.93;;;3.35;;
59263;SDS011;45030;42.720;23.344;2023-06-19T02:47:18;5.78;;;3.58;;
59263;SDS011;45030;42.720;23.344;2023-06-19T02:49:44;6.25;;;3.60;;
59263;SDS011;45030;42.720;23.344;2023-06-19T02:52:09;5.15;;;3.35;;
59263;SDS011;45030;42.720;23.344;2023-06-19T02:54:34;6.40;;;4.15;;
59263;SDS011;45030;42.720;23.344;2023-06-19T02:56:59;8.05;;;3.53;;
59263;SDS011;45030;42.720;23.344;2023-06-19T02:59:25;11.25;;;6.05;;
59263;SDS011;45030;42.720;23.344;2023-06-19T03:01:50;7.72;;;4.55;;
59263;SDS011;45030;42.720;23.344;2023-06-19T03:04:16;5.68;;;3.95;;
59263;SDS011;45030;42.720;23.344;2023-06-19T03:06:42;10.50;;;3.97;;
59263;SDS011;45030;42.720;23.344;2023-06-19T03:09:08;8.70;;;4.82;;
59263;SDS011;45030;42.720;23.344;2023-06-19T03:11:39;7.47;;;4.28;;
59263;SDS011;45030;42.720;23.344;2023-06-19T03:14:05;10.32;;;4.95;;
59263;SDS011;45030;42.720;23.344;2023-06-19T03:16:32;8.27;;;4.47;;
59263;SDS011;45030;42.720;23.344;2023-06-19T03:18:57;9.27;;;4.70;;
59263;SDS011;45030;42.720;23.344;2023-06-19T03:21:23;8.88;;;5.10;;
59263;SDS011;45030;42.720;23.344;2023-06-19T03:23:48;7.80;;;4.18;;
59263;SDS011;45030;42.720;23.344;2023-06-19T03:26:13;7.45;;;4.53;;
59263;SDS011;45030;42.720;23.344;2023-06-19T03:28:38;6.93;;;4.60;;
59263;SDS011;45030;42.720;23.344;2023-06-19T03:31:04;7.55;;;5.05;;
59263;SDS011;45030;42.720;23.344;2023-06-19T03:33:29;6.47;;;4.28;;
59263;SDS011;45030;42.720;23.344;2023-06-19T03:35:54;10.57;;;5.20;;
59263;SDS011;45030;42.720;23.344;2023-06-19T03:38:20;7.72;;;4.75;;
59263;SDS011;45030;42.720;23.344;2023-06-19T03:40:45;8.40;;;4.88;;
59263;SDS011;45030;42.720;23.344;2023-06-19T03:43:10;11.57;;;4.85;;
59263;SDS011;45030;42.720;23.344;2023-06-19T03:45:36;9.18;;;4.70;;
59263;SDS011;45030;42.720;23.344;2023-06-19T03:48:01;9.52;;;4.88;;
59263;SDS011;45030;42.720;23.344;2023-06-19T03:50:26;6.63;;;4.60;;
59263;SDS011;45030;42.720;23.344;2023-06-19T03:52:51;10.10;;;5.90;;
59263;SDS011;45030;42.720;23.344;2023-06-19T03:55:17;6.20;;;4.22;;
59263;SDS011;45030;42.720;23.344;2023-06-19T03:57:42;6.72;;;4.72;;
59263;SDS011;45030;42.720;23.344;2023-06-19T04:00:07;6.07;;;4.13;;
59263;SDS011;45030;42.720;23.344;2023-06-19T04:02:36;6.25;;;3.95;;
59263;SDS011;45030;42.720;23.344;2023-06-19T04:05:01;11.32;;;4.28;;
59263;SDS011;45030;42.720;23.344;2023-06-19T04:07:26;5.35;;;3.50;;
59263;SDS011;45030;42.720;23.344;2023-06-19T04:09:51;7.35;;;4.03;;
59263;SDS011;45030;42.720;23.344;2023-06-19T04:12:17;6.38;;;3.88;;
59263;SDS011;45030;42.720;23.344;2023-06-19T04:14:42;6.00;;;3.50;;
59263;SDS011;45030;42.720;23.344;2023-06-19T04:17:07;6.57;;;3.55;;
59263;SDS011;45030;42.720;23.344;2023-06-19T04:19:32;7.20;;;3.97;;
59263;SDS011;45030;42.720;23.344;2023-06-19T04:21:57;5.28;;;3.20;;
59263;SDS011;45030;42.720;23.344;2023-06-19T04:24:23;5.03;;;3.10;;
59263;SDS011;45030;42.720;23.344;2023-06-19T04:26:48;8.15;;;3.35;;
59263;SDS011;45030;42.720;23.344;2023-06-19T04:29:13;6.10;;;3.45;;
59263;SDS011;45030;42.720;23.344;2023-06-19T04:31:43;8.93;;;2.97;;
59263;SDS011;45030;42.720;23.344;2023-06-19T04:34:11;5.70;;;3.45;;
59263;SDS011;45030;42.720;23.344;2023-06-19T04:36:37;11.20;;;3.90;;
59263;SDS011;45030;42.720;23.344;2023-06-19T04:39:02;6.53;;;3.13;;
59263;SDS011;45030;42.720;23.344;2023-06-19T04:41:27;6.82;;;3.83;;
59263;SDS011;45030;42.720;23.344;2023-06-19T04:43:52;8.07;;;3.55;;
59263;SDS011;45030;42.720;23.344;2023-06-19T04:46:18;4.78;;;3.42;;
59263;SDS011;45030;42.720;23.344;2023-06-19T04:48:45;5.57;;;3.08;;
59263;SDS011;45030;42.720;23.344;2023-06-19T04:51:10;3.85;;;2.92;;
59263;SDS011;45030;42.720;23.344;2023-06-19T04:53:35;4.38;;;2.90;;
59263;SDS011;45030;42.720;23.344;2023-06-19T04:56:02;4.45;;;2.47;;
59263;SDS011;45030;42.720;23.344;2023-06-19T04:58:27;4.40;;;3.05;;
59263;SDS011;45030;42.720;23.344;2023-06-19T05:00:52;5.43;;;2.92;;
59263;SDS011;45030;42.720;23.344;2023-06-19T05:03:19;5.70;;;3.42;;
59263;SDS011;45030;42.720;23.344;2023-06-19T05:05:44;4.07;;;2.72;;
59263;SDS011;45030;42.720;23.344;2023-06-19T05:08:10;4.57;;;2.53;;
59263;SDS011;45030;42.720;23.344;2023-06-19T05:10:35;6.13;;;3.22;;
59263;SDS011;45030;42.720;23.344;2023-06-19T05:13:00;4.15;;;2.80;;
59263;SDS011;45030;42.720;23.344;2023-06-19T05:15:26;5.15;;;3.13;;
59263;SDS011;45030;42.720;23.344;2023-06-19T05:17:52;6.32;;;2.30;;
59263;SDS011;45030;42.720;23.344;2023-06-19T05:20:17;5.00;;;2.75;;
59263;SDS011;45030;42.720;23.344;2023-06-19T05:22:42;5.20;;;2.70;;
59263;SDS011;45030;42.720;23.344;2023-06-19T05:25:08;5.13;;;2.70;;
59263;SDS011;45030;42.720;23.344;2023-06-19T05:27:33;3.67;;;2.33;;
59263;SDS011;45030;42.720;23.344;2023-06-19T05:29:58;5.80;;;3.30;;
59263;SDS011;45030;42.720;23.344;2023-06-19T05:32:23;3.53;;;2.42;;
59263;SDS011;45030;42.720;23.344;2023-06-19T05:34:49;5.18;;;2.67;;
59263;SDS011;45030;42.720;23.344;2023-06-19T05:37:16;4.05;;;2.58;;
59263;SDS011;45030;42.720;23.344;2023-06-19T05:39:41;5.60;;;2.75;;
59263;SDS011;45030;42.720;23.344;2023-06-19T05:42:06;3.65;;;2.35;;
59263;SDS011;45030;42.720;23.344;2023-06-19T05:44:32;3.10;;;2.05;;
59263;SDS011;45030;42.720;23.344;2023-06-19T05:46:57;4.05;;;2.80;;
59263;SDS011;45030;42.720;23.344;2023-06-19T05:49:22;3.55;;;2.30;;
59263;SDS011;45030;42.720;23.344;2023-06-19T05:51:47;2.75;;;2.00;;
59263;SDS011;45030;42.720;23.344;2023-06-19T05:54:13;3.85;;;2.67;;
59263;SDS011;45030;42.720;23.344;2023-06-19T05:56:38;7.05;;;2.95;;
59263;SDS011;45030;42.720;23.344;2023-06-19T05:59:03;3.83;;;2.53;;
59263;SDS011;45030;42.720;23.344;2023-06-19T06:01:29;4.15;;;2.38;;
59263;SDS011;45030;42.720;23.344;2023-06-19T06:03:55;5.57;;;2.83;;
59263;SDS011;45030;42.720;23.344;2023-06-19T06:06:20;2.80;;;1.88;;
59263;SDS011;45030;42.720;23.344;2023-06-19T06:08:45;3.78;;;2.60;;
59263;SDS011;45030;42.720;23.344;2023-06-19T06:11:10;3.45;;;2.53;;
59263;SDS011;45030;42.720;23.344;2023-06-19T06:13:36;4.60;;;2.42;;
59263;SDS011;45030;42.720;23.344;2023-06-19T06:16:01;4.07;;;2.35;;
59263;SDS011;45030;42.720;23.344;2023-06-19T06:18:26;4.45;;;2.67;;
59263;SDS011;45030;42.720;23.344;2023-06-19T06:20:52;4.28;;;2.30;;
59263;SDS011;45030;42.720;23.344;2023-06-19T06:23:18;3.35;;;1.98;;
59263;SDS011;45030;42.720;23.344;2023-06-19T06:25:43;3.90;;;2.13;;
59263;SDS011;45030;42.720;23.344;2023-06-19T06:28:10;4.22;;;2.10;;
59263;SDS011;45030;42.720;23.344;2023-06-19T06:30:35;6.13;;;3.00;;
59263;SDS011;45030;42.720;23.344;2023-06-19T06:33:01;5.85;;;2.17;;
59263;SDS011;45030;42.720;23.344;2023-06-19T06:35:26;2.53;;;2.13;;
59263;SDS011;45030;42.720;23.344;2023-06-19T06:37:51;4.73;;;2.43;;
59263;SDS011;45030;42.720;23.344;2023-06-19T06:40:16;5.97;;;2.87;;
59263;SDS011;45030;42.720;23.344;2023-06-19T06:42:41;8.65;;;2.67;;
59263;SDS011;45030;42.720;23.344;2023-06-19T06:45:07;3.67;;;2.50;;
59263;SDS011;45030;42.720;23.344;2023-06-19T06:47:33;4.72;;;2.42;;
59263;SDS011;45030;42.720;23.344;2023-06-19T06:49:58;4.15;;;2.53;;
59263;SDS011;45030;42.720;23.344;2023-06-19T06:52:23;2.88;;;1.98;;
59263;SDS011;45030;42.720;23.344;2023-06-19T06:54:49;5.15;;;2.17;;
59263;SDS011;45030;42.720;23.344;2023-06-19T06:57:14;4.07;;;2.55;;
59263;SDS011;45030;42.720;23.344;2023-06-19T06:59:39;3.97;;;2.40;;
59263;SDS011;45030;42.720;23.344;2023-06-19T07:02:05;4.30;;;2.22;;
59263;SDS011;45030;42.720;23.344;2023-06-19T07:04:30;4.13;;;1.85;;
59263;SDS011;45030;42.720;23.344;2023-06-19T07:06:56;3.78;;;2.10;;
59263;SDS011;45030;42.720;23.344;2023-06-19T07:09:23;3.60;;;2.30;;
59263;SDS011;45030;42.720;23.344;2023-06-19T07:11:48;4.72;;;2.22;;
59263;SDS011;45030;42.720;23.344;2023-06-19T07:14:14;3.58;;;2.03;;
59263;SDS011;45030;42.720;23.344;2023-06-19T07:16:39;4.00;;;2.50;;
59263;SDS011;45030;42.720;23.344;2023-06-19T07:19:04;3.00;;;1.90;;
59263;SDS011;45030;42.720;23.344;2023-06-19T07:21:30;3.83;;;2.83;;
59263;SDS011;45030;42.720;23.344;2023-06-19T07:23:55;3.83;;;2.35;;
59263;SDS011;45030;42.720;23.344;2023-06-19T07:26:21;3.42;;;2.25;;
59263;SDS011;45030;42.720;23.344;2023-06-19T07:28:46;5.13;;;2.58;;
59263;SDS011;45030;42.720;23.344;2023-06-19T07:31:11;3.53;;;2.35;;
59263;SDS011;45030;42.720;23.344;2023-06-19T07:33:37;3.03;;;2.10;;
59263;SDS011;45030;42.720;23.344;2023-06-19T07:36:02;3.65;;;2.30;;
59263;SDS011;45030;42.720;23.344;2023-06-19T07:38:27;3.65;;;2.50;;
59263;SDS011;45030;42.720;23.344;2023-06-19T07:40:53;4.27;;;2.70;;
59263;SDS011;45030;42.720;23.344;2023-06-19T07:43:18;2.80;;;1.77;;
59263;SDS011;45030;42.720;23.344;2023-06-19T07:45:43;2.97;;;2.05;;
59263;SDS011;45030;42.720;23.344;2023-06-19T07:48:08;5.60;;;2.30;;
59263;SDS011;45030;42.720;23.344;2023-06-19T07:50:33;5.60;;;2.23;;
59263;SDS011;45030;42.720;23.344;2023-06-19T07:52:59;3.20;;;2.30;;
59263;SDS011;45030;42.720;23.344;2023-06-19T07:55:24;5.23;;;2.27;;
59263;SDS011;45030;42.720;23.344;2023-06-19T07:57:49;2.87;;;1.93;;
59263;SDS011;45030;42.720;23.344;2023-06-19T08:00:15;3.15;;;2.00;;
59263;SDS011;45030;42.720;23.344;2023-06-19T08:02:40;3.67;;;2.30;;
59263;SDS011;45030;42.720;23.344;2023-06-19T08:05:08;2.60;;;1.80;;
59263;SDS011;45030;42.720;23.344;2023-06-19T08:07:34;2.47;;;1.65;;
59263;SDS011;45030;42.720;23.344;2023-06-19T08:10:00;2.90;;;2.38;;
59263;SDS011;45030;42.720;23.344;2023-06-19T08:12:25;4.47;;;2.00;;
59263;SDS011;45030;42.720;23.344;2023-06-19T08:14:51;3.45;;;2.00;;
59263;SDS011;45030;42.720;23.344;2023-06-19T08:17:16;3.15;;;2.10;;
59263;SDS011;45030;42.720;23.344;2023-06-19T08:19:41;3.03;;;2.40;;
59263;SDS011;45030;42.720;23.344;2023-06-19T08:22:07;3.40;;;2.22;;
59263;SDS011;45030;42.720;23.344;2023-06-19T08:24:33;3.70;;;2.10;;
59263;SDS011;45030;42.720;23.344;2023-06-19T08:26:58;3.03;;;2.00;;
59263;SDS011;45030;42.720;23.344;2023-06-19T08:29:24;3.25;;;2.20;;
59263;SDS011;45030;42.720;23.344;2023-06-19T08:31:49;4.55;;;2.30;;
59263;SDS011;45030;42.720;23.344;2023-06-19T08:34:14;3.77;;;2.23;;
59263;SDS011;45030;42.720;23.344;2023-06-19T08:36:40;2.78;;;2.10;;
59263;SDS011;45030;42.720;23.344;2023-06-19T08:39:05;4.18;;;2.38;;
59263;SDS011;45030;42.720;23.344;2023-06-19T08:41:32;3.53;;;2.17;;
59263;SDS011;45030;42.720;23.344;2023-06-19T08:43:58;4.40;;;2.03;;
59263;SDS011;45030;42.720;23.344;2023-06-19T08:46:23;3.53;;;2.17;;
59263;SDS011;45030;42.720;23.344;2023-06-19T08:48:48;3.17;;;1.77;;
59263;SDS011;45030;42.720;23.344;2023-06-19T08:51:13;2.80;;;1.90;;
59263;SDS011;45030;42.720;23.344;2023-06-19T08:53:47;3.72;;;2.28;;
59263;SDS011;45030;42.720;23.344;2023-06-19T08:56:13;2.83;;;2.10;;
59263;SDS011;45030;42.720;23.344;2023-06-19T08:58:38;3.20;;;2.22;;
59263;SDS011;45030;42.720;23.344;2023-06-19T09:01:04;3.97;;;2.03;;
59263;SDS011;45030;42.720;23.344;2023-06-19T09:03:29;2.95;;;2.08;;
59263;SDS011;45030;42.720;23.344;2023-06-19T09:05:54;2.83;;;1.70;;
59263;SDS011;45030;42.720;23.344;2023-06-19T09:08:20;3.00;;;2.17;;
59263;SDS011;45030;42.720;23.344;2023-06-19T09:10:58;3.40;;;2.53;;
59263;SDS011;45030;42.720;23.344;2023-06-19T09:13:23;3.08;;;1.90;;
59263;SDS011;45030;42.720;23.344;2023-06-19T09:15:56;4.20;;;1.95;;
59263;SDS011;45030;42.720;23.344;2023-06-19T09:18:22;4.43;;;2.28;;
59263;SDS011;45030;42.720;23.344;2023-06-19T09:20:47;3.73;;;2.07;;
59263;SDS011;45030;42.720;23.344;2023-06-19T09:23:13;2.83;;;1.65;;
59263;SDS011;45030;42.720;23.344;2023-06-19T09:25:48;3.00;;;2.10;;
59263;SDS011;45030;42.720;23.344;2023-06-19T09:28:17;4.03;;;2.47;;
59263;SDS011;45030;42.720;23.344;2023-06-19T09:30:51;3.55;;;2.08;;
59263;SDS011;45030;42.720;23.344;2023-06-19T09:33:16;4.35;;;2.13;;
59263;SDS011;45030;42.720;23.344;2023-06-19T09:35:41;3.17;;;2.13;;
59263;SDS011;45030;42.720;23.344;2023-06-19T09:38:07;2.87;;;1.87;;
59263;SDS011;45030;42.720;23.344;2023-06-19T09:40:33;5.68;;;2.15;;
59263;SDS011;45030;42.720;23.344;2023-06-19T09:42:58;4.18;;;2.22;;
59263;SDS011;45030;42.720;23.344;2023-06-19T09:45:23;3.83;;;2.15;;
59263;SDS011;45030;42.720;23.344;2023-06-19T09:47:51;2.65;;;1.85;;
59263;SDS011;45030;42.720;23.344;2023-06-19T09:50:18;3.20;;;2.10;;
59263;SDS011;45030;42.720;23.344;2023-06-19T09:52:46;4.22;;;2.30;;
59263;SDS011;45030;42.720;23.344;2023-06-19T09:55:11;4.03;;;2.20;;
59263;SDS011;45030;42.720;23.344;2023-06-19T09:57:40;2.88;;;1.95;;
59263;SDS011;45030;42.720;23.344;2023-06-19T10:00:07;2.63;;;1.70;;
59263;SDS011;45030;42.720;23.344;2023-06-19T10:02:41;3.30;;;1.80;;
59263;SDS011;45030;42.720;23.344;2023-06-19T10:05:07;2.70;;;1.90;;
59263;SDS011;45030;42.720;23.344;2023-06-19T10:07:38;2.92;;;2.10;;
59263;SDS011;45030;42.720;23.344;2023-06-19T10:10:06;2.38;;;1.63;;
59263;SDS011;45030;42.720;23.344;2023-06-19T10:12:41;2.65;;;1.92;;
59263;SDS011;45030;42.720;23.344;2023-06-19T10:15:17;3.30;;;1.90;;
59263;SDS011;45030;42.720;23.344;2023-06-19T10:17:48;3.15;;;1.83;;
59263;SDS011;45030;42.720;23.344;2023-06-19T10:23:03;3.90;;;2.30;;
59263;SDS011;45030;42.720;23.344;2023-06-19T10:25:29;3.47;;;2.20;;
59263;SDS011;45030;42.720;23.344;2023-06-19T10:27:55;2.53;;;1.80;;
59263;SDS011;45030;42.720;23.344;2023-06-19T10:30:20;3.05;;;1.83;;
59263;SDS011;45030;42.720;23.344;2023-06-19T10:32:48;2.80;;;2.05;;
59263;SDS011;45030;42.720;23.344;2023-06-19T10:35:14;2.53;;;1.70;;
59263;SDS011;45030;42.720;23.344;2023-06-19T10:37:39;2.90;;;2.05;;
59263;SDS011;45030;42.720;23.344;2023-06-19T10:40:05;4.97;;;2.60;;
59263;SDS011;45030;42.720;23.344;2023-06-19T10:42:37;2.70;;;1.77;;
59263;SDS011;45030;42.720;23.344;2023-06-19T10:45:04;2.85;;;1.90;;
59263;SDS011;45030;42.720;23.344;2023-06-19T10:47:31;5.05;;;2.78;;
59263;SDS011;45030;42.720;23.344;2023-06-19T10:49:56;3.33;;;2.00;;
59263;SDS011;45030;42.720;23.344;2023-06-19T10:52:22;2.53;;;1.55;;
59263;SDS011;45030;42.720;23.344;2023-06-19T10:54:52;2.97;;;2.07;;
59263;SDS011;45030;42.720;23.344;2023-06-19T10:57:19;2.95;;;2.08;;
59263;SDS011;45030;42.720;23.344;2023-06-19T10:59:50;2.60;;;1.83;;
59263;SDS011;45030;42.720;23.344;2023-06-19T11:02:17;3.83;;;1.95;;
59263;SDS011;45030;42.720;23.344;2023-06-19T11:04:42;2.78;;;1.80;;
59263;SDS011;45030;42.720;23.344;2023-06-19T11:07:08;2.80;;;2.30;;
59263;SDS011;45030;42.720;23.344;2023-06-19T11:09:33;4.93;;;2.30;;
59263;SDS011;45030;42.720;23.344;2023-06-19T11:11:58;4.70;;;2.30;;
59263;SDS011;45030;42.720;23.344;2023-06-19T11:14:28;3.08;;;2.30;;
59263;SDS011;45030;42.720;23.344;2023-06-19T11:16:54;3.55;;;2.65;;
59263;SDS011;45030;42.720;23.344;2023-06-19T11:19:19;3.17;;;2.38;;
59263;SDS011;45030;42.720;23.344;2023-06-19T11:21:51;5.50;;;2.80;;
59263;SDS011;45030;42.720;23.344;2023-06-19T11:24:17;3.50;;;2.17;;
59263;SDS011;45030;42.720;23.344;2023-06-19T11:26:46;5.70;;;2.83;;
59263;SDS011;45030;42.720;23.344;2023-06-19T11:31:47;3.35;;;2.35;;
59263;SDS011;45030;42.720;23.344;2023-06-19T11:34:13;3.92;;;2.35;;
59263;SDS011;45030;42.720;23.344;2023-06-19T11:36:38;5.25;;;3.25;;
59263;SDS011;45030;42.720;23.344;2023-06-19T11:39:04;3.55;;;2.45;;
59263;SDS011;45030;42.720;23.344;2023-06-19T11:41:34;2.72;;;2.10;;
59263;SDS011;45030;42.720;23.344;2023-06-19T11:44:00;4.22;;;2.47;;
59263;SDS011;45030;42.720;23.344;2023-06-19T11:46:29;3.42;;;2.40;;
59263;SDS011;45030;42.720;23.344;2023-06-19T11:48:55;5.53;;;2.38;;
59263;SDS011;45030;42.720;23.344;2023-06-19T11:51:21;3.45;;;2.58;;
59263;SDS011;45030;42.720;23.344;2023-06-19T11:53:46;4.00;;;2.77;;
59263;SDS011;45030;42.720;23.344;2023-06-19T11:56:11;3.70;;;2.30;;
59263;SDS011;45030;42.720;23.344;2023-06-19T11:58:36;3.97;;;2.70;;
59263;SDS011;45030;42.720;23.344;2023-06-19T12:01:02;3.07;;;2.30;;
59263;SDS011;45030;42.720;23.344;2023-06-19T12:03:27;4.00;;;2.58;;
59263;SDS011;45030;42.720;23.344;2023-06-19T12:05:52;4.03;;;2.30;;
59263;SDS011;45030;42.720;23.344;2023-06-19T12:08:17;4.90;;;2.47;;
59263;SDS011;45030;42.720;23.344;2023-06-19T12:10:43;3.57;;;2.03;;
59263;SDS011;45030;42.720;23.344;2023-06-19T12:13:08;3.65;;;2.38;;
59263;SDS011;45030;42.720;23.344;2023-06-19T12:15:34;3.90;;;2.45;;
59263;SDS011;45030;42.720;23.344;2023-06-19T12:17:59;4.73;;;2.90;;
59263;SDS011;45030;42.720;23.344;2023-06-19T12:20:24;3.42;;;2.53;;
59263;SDS011;45030;42.720;23.344;2023-06-19T12:22:50;3.67;;;2.20;;
59263;SDS011;45030;42.720;23.344;2023-06-19T12:25:15;4.57;;;2.30;;
59263;SDS011;45030;42.720;23.344;2023-06-19T12:27:40;4.28;;;2.35;;
59263;SDS011;45030;42.720;23.344;2023-06-19T12:30:06;3.05;;;1.95;;
59263;SDS011;45030;42.720;23.344;2023-06-19T12:32:32;3.35;;;2.45;;
59263;SDS011;45030;42.720;23.344;2023-06-19T12:34:58;2.92;;;2.05;;
59263;SDS011;45030;42.720;23.344;2023-06-19T12:37:23;4.13;;;2.47;;
59263;SDS011;45030;42.720;23.344;2023-06-19T12:39:52;3.65;;;2.25;;
59263;SDS011;45030;42.720;23.344;2023-06-19T12:42:17;4.13;;;2.38;;
59263;SDS011;45030;42.720;23.344;2023-06-19T12:44:43;3.60;;;2.17;;
59263;SDS011;45030;42.720;23.344;2023-06-19T12:47:11;3.85;;;2.20;;
59263;SDS011;45030;42.720;23.344;2023-06-19T12:49:36;4.07;;;2.20;;
59263;SDS011;45030;42.720;23.344;2023-06-19T12:52:02;4.63;;;2.00;;
59263;SDS011;45030;42.720;23.344;2023-06-19T12:54:27;3.10;;;2.00;;
59263;SDS011;45030;42.720;23.344;2023-06-19T12:56:53;3.78;;;2.15;;
59263;SDS011;45030;42.720;23.344;2023-06-19T12:59:18;3.50;;;2.30;;
59263;SDS011;45030;42.720;23.344;2023-06-19T13:01:43;4.72;;;2.22;;
59263;SDS011;45030;42.720;23.344;2023-06-19T13:04:09;3.15;;;2.17;;
59263;SDS011;45030;42.720;23.344;2023-06-19T13:06:35;4.00;;;2.05;;
59263;SDS011;45030;42.720;23.344;2023-06-19T13:09:01;3.03;;;2.03;;
59263;SDS011;45030;42.720;23.344;2023-06-19T13:11:26;3.85;;;2.15;;
59263;SDS011;45030;42.720;23.344;2023-06-19T13:13:52;2.60;;;1.75;;
59263;SDS011;45030;42.720;23.344;2023-06-19T13:16:17;3.93;;;1.90;;
59263;SDS011;45030;42.720;23.344;2023-06-19T13:18:43;2.72;;;2.05;;
59263;SDS011;45030;42.720;23.344;2023-06-19T13:21:09;3.92;;;1.90;;
59263;SDS011;45030;42.720;23.344;2023-06-19T13:23:34;2.97;;;2.23;;
59263;SDS011;45030;42.720;23.344;2023-06-19T13:25:59;3.85;;;2.20;;
59263;SDS011;45030;42.720;23.344;2023-06-19T13:28:25;2.78;;;1.95;;
59263;SDS011;45030;42.720;23.344;2023-06-19T13:30:50;3.37;;;2.20;;
59263;SDS011;45030;42.720;23.344;2023-06-19T13:33:15;5.13;;;2.40;;
59263;SDS011;45030;42.720;23.344;2023-06-19T13:35:41;2.90;;;1.80;;
59263;SDS011;45030;42.720;23.344;2023-06-19T13:38:06;4.45;;;1.80;;
59263;SDS011;45030;42.720;23.344;2023-06-19T13:40:32;3.65;;;1.80;;
59263;SDS011;45030;42.720;23.344;2023-06-19T13:42:57;2.43;;;1.70;;
59263;SDS011;45030;42.720;23.344;2023-06-19T13:45:23;2.95;;;2.15;;
59263;SDS011;45030;42.720;23.344;2023-06-19T13:47:49;2.77;;;2.00;;
59263;SDS011;45030;42.720;23.344;2023-06-19T13:50:14;2.60;;;1.80;;
59263;SDS011;45030;42.720;23.344;2023-06-19T13:52:43;4.47;;;1.90;;
59263;SDS011;45030;42.720;23.344;2023-06-19T13:55:08;3.92;;;2.40;;
59263;SDS011;45030;42.720;23.344;2023-06-19T13:57:33;3.58;;;2.25;;
59263;SDS011;45030;42.720;23.344;2023-06-19T13:59:59;3.57;;;2.40;;
59263;SDS011;45030;42.720;23.344;2023-06-19T14:02:24;2.97;;;1.87;;
59263;SDS011;45030;42.720;23.344;2023-06-19T14:04:49;2.65;;;1.85;;
59263;SDS011;45030;42.720;23.344;2023-06-19T14:07:14;3.80;;;2.33;;
59263;SDS011;45030;42.720;23.344;2023-06-19T14:09:42;3.50;;;2.10;;
59263;SDS011;45030;42.720;23.344;2023-06-19T14:12:08;3.20;;;2.07;;
59263;SDS011;45030;42.720;23.344;2023-06-19T14:14:33;3.53;;;2.58;;
59263;SDS011;45030;42.720;23.344;2023-06-19T14:16:58;4.13;;;2.25;;
59263;SDS011;45030;42.720;23.344;2023-06-19T14:19:23;3.53;;;2.30;;
59263;SDS011;45030;42.720;23.344;2023-06-19T14:21:49;3.70;;;2.58;;
59263;SDS011;45030;42.720;23.344;2023-06-19T14:24:14;3.53;;;2.67;;
59263;SDS011;45030;42.720;23.344;2023-06-19T14:26:40;3.90;;;2.40;;
59263;SDS011;45030;42.720;23.344;2023-06-19T14:29:06;4.50;;;2.30;;
59263;SDS011;45030;42.720;23.344;2023-06-19T14:31:33;3.08;;;2.25;;